X  Luk Metar data     EKYT Aalborg
Temperatur
5°C Temperatur
3°C Duggpunkt
87% Fugtighed



Vind
6 M/S
13 MPT
21 KM/T
11 KNOB



240°
VSV
Nuværende forhold

For det meste skyet For det meste skyet
Tryk 1009.92 (hPa) - 29.82 (inHg)
Sigt 6.2 (mil) - 10 (km)
Lufthavn
Lufthavnskode EKYT

Lokation: Aalborg
Afstand: 55 (km)

Metar:
EKYT 241150Z 24011KT 9999 BKN040 05/03 Q1010

Tid: 24-02-2020 12:50 CET